createdAt,value
2023-05-19T00:00:57.907Z,9.90
2023-05-19T00:03:26.943Z,9.63
2023-05-19T00:05:58.859Z,6.57
2023-05-19T00:08:27.405Z,6.65
2023-05-19T00:10:55.593Z,8.85
2023-05-19T00:13:24.175Z,7.38
2023-05-19T00:15:52.273Z,10.23
2023-05-19T00:18:20.614Z,9.63
2023-05-19T00:20:48.283Z,6.85
2023-05-19T00:23:17.245Z,9.43
2023-05-19T00:25:44.877Z,10.32
2023-05-19T00:28:12.499Z,9.43
2023-05-19T00:30:40.198Z,8.07
2023-05-19T00:33:07.829Z,7.25
2023-05-19T00:35:35.709Z,9.05
2023-05-19T00:38:03.333Z,8.70
2023-05-19T00:40:34.014Z,7.55
2023-05-19T00:43:01.832Z,8.70
2023-05-19T00:45:30.218Z,7.30
2023-05-19T00:47:58.399Z,9.02
2023-05-19T00:50:27.295Z,7.75
2023-05-19T00:52:55.147Z,14.07
2023-05-19T00:55:24.180Z,10.88
2023-05-19T00:57:54.060Z,9.40
2023-05-19T01:00:22.166Z,8.43
2023-05-19T01:02:51.175Z,11.45
2023-05-19T01:05:18.911Z,11.75
2023-05-19T01:07:47.104Z,8.52
2023-05-19T01:10:14.798Z,6.30
2023-05-19T01:12:42.510Z,8.55
2023-05-19T01:15:13.776Z,7.18
2023-05-19T01:17:50.396Z,12.68
2023-05-19T01:20:21.957Z,9.65
2023-05-19T01:23:18.942Z,10.25
2023-05-19T01:26:10.597Z,8.30
2023-05-19T01:29:17.654Z,6.88
2023-05-19T01:31:48.984Z,9.13
2023-05-19T01:34:18.399Z,8.55
2023-05-19T01:36:49.884Z,6.93
2023-05-19T01:39:17.902Z,10.13
2023-05-19T01:41:47.633Z,12.20
2023-05-19T01:44:16.063Z,6.90
2023-05-19T01:46:46.908Z,8.20
2023-05-19T01:49:14.761Z,7.00
2023-05-19T01:51:42.488Z,13.23
2023-05-19T01:54:10.188Z,9.45
2023-05-19T01:56:43.101Z,8.10
2023-05-19T01:59:21.326Z,11.05
2023-05-19T02:01:54.517Z,8.07
2023-05-19T02:04:32.937Z,8.00
2023-05-19T02:07:06.449Z,8.23
2023-05-19T02:09:41.732Z,10.90
2023-05-19T02:12:16.954Z,11.40
2023-05-19T02:14:50.645Z,7.22
2023-05-19T02:17:21.179Z,12.82
2023-05-19T02:19:49.144Z,10.60
2023-05-19T02:22:16.900Z,10.98
2023-05-19T02:24:46.437Z,6.20
2023-05-19T02:27:14.258Z,9.75
2023-05-19T02:29:42.979Z,10.65
2023-05-19T02:32:12.110Z,11.45
2023-05-19T02:34:45.539Z,10.88
2023-05-19T02:37:13.625Z,9.35
2023-05-19T02:39:41.310Z,11.82
2023-05-19T02:42:09.189Z,8.20
2023-05-19T02:44:37.022Z,12.77
2023-05-19T02:47:04.969Z,7.72
2023-05-19T02:49:35.802Z,11.73
2023-05-19T02:52:05.420Z,12.43
2023-05-19T02:54:34.126Z,8.10
2023-05-19T02:57:02.230Z,12.38
2023-05-19T02:59:29.950Z,12.82
2023-05-19T03:02:01.924Z,13.75
2023-05-19T03:04:30.270Z,13.32
2023-05-19T03:06:58.258Z,12.18
2023-05-19T03:09:27.381Z,10.65
2023-05-19T03:11:55.110Z,9.27
2023-05-19T03:14:24.485Z,11.48
2023-05-19T03:16:52.856Z,8.80
2023-05-19T03:19:20.779Z,11.80
2023-05-19T03:21:48.678Z,14.05
2023-05-19T03:24:16.451Z,10.55
2023-05-19T03:26:45.891Z,14.70
2023-05-19T03:29:13.543Z,10.00
2023-05-19T03:31:41.202Z,7.05
2023-05-19T03:34:09.179Z,14.65
2023-05-19T03:36:39.664Z,10.00
2023-05-19T03:39:12.075Z,12.45
2023-05-19T03:41:40.344Z,11.32
2023-05-19T03:44:09.305Z,9.15
2023-05-19T03:46:36.954Z,11.15
2023-05-19T03:49:07.492Z,15.15
2023-05-19T03:52:03.213Z,11.00
2023-05-19T03:54:48.727Z,13.82
2023-05-19T03:57:16.468Z,8.65
2023-05-19T03:59:45.925Z,13.38
2023-05-19T04:02:13.599Z,14.02
2023-05-19T04:04:41.288Z,13.98
2023-05-19T04:07:08.953Z,11.98
2023-05-19T04:09:37.564Z,13.65
2023-05-19T04:12:05.786Z,11.75
2023-05-19T04:14:33.490Z,9.43
2023-05-19T04:17:02.540Z,12.00
2023-05-19T04:19:30.268Z,13.43
2023-05-19T04:21:57.938Z,10.25
2023-05-19T04:24:25.643Z,15.52
2023-05-19T04:26:53.619Z,13.38
2023-05-19T04:29:23.904Z,9.48
2023-05-19T04:31:52.721Z,14.27
2023-05-19T04:34:22.646Z,12.30
2023-05-19T04:36:53.188Z,15.95
2023-05-19T04:39:22.782Z,13.40
2023-05-19T04:41:50.546Z,12.50
2023-05-19T04:44:19.144Z,14.70
2023-05-19T04:46:49.925Z,15.52
2023-05-19T04:49:19.309Z,20.55
2023-05-19T04:51:50.076Z,11.68
2023-05-19T04:54:19.611Z,11.82
2023-05-19T04:56:47.559Z,13.80
2023-05-19T04:59:16.448Z,10.65
2023-05-19T05:01:44.255Z,12.98
2023-05-19T05:04:14.278Z,13.00
2023-05-19T05:06:47.626Z,19.17
2023-05-19T05:09:17.058Z,17.20
2023-05-19T05:11:45.876Z,9.90
2023-05-19T05:14:14.119Z,17.92
2023-05-19T05:16:43.741Z,14.05
2023-05-19T05:19:16.379Z,11.75
2023-05-19T05:21:44.569Z,12.80
2023-05-19T05:24:13.380Z,12.65
2023-05-19T05:26:47.171Z,12.10
2023-05-19T05:29:14.833Z,9.40
2023-05-19T05:31:42.498Z,10.00
2023-05-19T05:34:11.274Z,14.68
2023-05-19T05:36:38.908Z,9.73
2023-05-19T05:39:08.128Z,10.10
2023-05-19T05:41:36.857Z,8.18
2023-05-19T05:44:12.228Z,13.18
2023-05-19T05:46:42.753Z,9.18
2023-05-19T05:49:12.447Z,8.97
2023-05-19T05:51:54.343Z,45.58
2023-05-19T05:54:32.778Z,8.65
2023-05-19T05:57:02.472Z,14.23
2023-05-19T05:59:33.678Z,8.63
2023-05-19T06:02:01.684Z,8.20
2023-05-19T06:04:29.976Z,15.10
2023-05-19T06:07:00.879Z,9.10
2023-05-19T06:09:32.733Z,10.30
2023-05-19T06:12:00.889Z,8.23
2023-05-19T06:14:34.077Z,7.47
2023-05-19T06:17:36.266Z,8.60
2023-05-19T06:20:05.893Z,12.67
2023-05-19T06:22:33.528Z,9.60
2023-05-19T06:25:03.527Z,10.13
2023-05-19T06:27:33.998Z,11.10
2023-05-19T06:30:04.413Z,10.47
2023-05-19T06:32:37.921Z,7.47
2023-05-19T06:35:06.638Z,8.40
2023-05-19T06:37:34.324Z,9.60
2023-05-19T06:40:02.079Z,9.63
2023-05-19T06:42:29.737Z,7.87
2023-05-19T06:45:08.530Z,12.80
2023-05-19T06:47:36.305Z,12.63
2023-05-19T06:50:04.649Z,8.60
2023-05-19T06:52:35.634Z,10.73
2023-05-19T06:55:03.321Z,7.13
2023-05-19T06:57:32.587Z,9.13
2023-05-19T07:00:01.264Z,7.53
2023-05-19T07:02:30.420Z,10.80
2023-05-19T07:05:01.828Z,7.93
2023-05-19T07:07:29.595Z,11.23
2023-05-19T07:09:58.653Z,7.20
2023-05-19T07:12:27.394Z,8.27
2023-05-19T07:14:55.473Z,6.90
2023-05-19T07:17:24.203Z,7.67
2023-05-19T07:19:53.436Z,7.13
2023-05-19T07:22:24.073Z,5.43
2023-05-19T07:24:52.023Z,7.87
2023-05-19T07:27:19.708Z,5.70
2023-05-19T07:29:47.367Z,7.60
2023-05-19T07:32:15.155Z,9.83
2023-05-19T07:34:42.997Z,8.63
2023-05-19T07:37:12.078Z,7.20
2023-05-19T07:39:39.715Z,7.83
2023-05-19T07:42:07.407Z,7.80
2023-05-19T07:44:35.538Z,6.87
2023-05-19T07:47:03.318Z,5.93
2023-05-19T07:49:31.008Z,6.37
2023-05-19T07:51:58.762Z,5.80
2023-05-19T07:54:27.850Z,7.07
2023-05-19T07:56:55.953Z,6.40
2023-05-19T07:59:24.266Z,6.57
2023-05-19T08:01:52.113Z,5.87
2023-05-19T08:04:19.895Z,5.70
2023-05-19T08:06:47.620Z,4.40
2023-05-19T08:09:15.243Z,6.73
2023-05-19T08:11:44.748Z,9.40
2023-05-19T08:14:12.458Z,7.60
2023-05-19T08:16:41.783Z,9.60
2023-05-19T08:19:09.619Z,5.63
2023-05-19T08:21:37.364Z,6.43
2023-05-19T08:24:05.255Z,8.20
2023-05-19T08:26:34.116Z,4.80
2023-05-19T08:29:04.080Z,5.87
2023-05-19T08:31:31.760Z,4.83
2023-05-19T08:33:59.449Z,6.07
2023-05-19T08:36:27.575Z,7.43
2023-05-19T08:38:55.205Z,7.80
2023-05-19T08:41:23.212Z,6.20
2023-05-19T08:43:51.059Z,4.43
2023-05-19T08:46:22.910Z,5.63
2023-05-19T08:48:55.173Z,7.40
2023-05-19T08:51:32.373Z,5.03
2023-05-19T08:54:10.027Z,5.40
2023-05-19T08:56:39.116Z,9.20
2023-05-19T08:59:07.258Z,4.70
2023-05-19T09:04:06.185Z,7.93
2023-05-19T09:06:33.982Z,5.90
2023-05-19T09:09:01.657Z,7.60
2023-05-19T09:11:29.391Z,6.17
2023-05-19T09:13:57.202Z,7.70
2023-05-19T09:16:27.660Z,6.37
2023-05-19T09:18:58.699Z,4.70
2023-05-19T09:21:31.422Z,7.20
2023-05-19T09:23:59.930Z,4.67
2023-05-19T09:26:37.467Z,4.90
2023-05-19T09:29:12.133Z,12.53
2023-05-19T09:31:39.840Z,5.53
2023-05-19T09:34:15.616Z,8.17
2023-05-19T09:36:43.454Z,5.50
2023-05-19T09:39:15.244Z,4.13
2023-05-19T09:41:43.715Z,8.73
2023-05-19T09:44:14.418Z,5.40
2023-05-19T09:46:49.156Z,5.03
2023-05-19T09:49:22.637Z,10.33
2023-05-19T09:51:52.044Z,4.90
2023-05-19T09:54:21.612Z,4.03
2023-05-19T09:56:52.995Z,4.50
2023-05-19T09:59:24.899Z,4.30
2023-05-19T10:01:55.056Z,7.03
2023-05-19T10:04:24.521Z,6.00
2023-05-19T10:06:54.350Z,6.03
2023-05-19T10:09:24.852Z,3.57
2023-05-19T10:11:54.004Z,5.70
2023-05-19T10:14:24.249Z,4.23
2023-05-19T10:16:52.787Z,5.00
2023-05-19T10:19:22.490Z,6.03
2023-05-19T10:21:52.079Z,7.30
2023-05-19T10:24:21.354Z,7.60
2023-05-19T10:26:52.575Z,7.80
2023-05-19T10:29:25.038Z,5.33
2023-05-19T10:31:54.149Z,4.57
2023-05-19T10:34:50.978Z,6.20
2023-05-19T10:37:31.317Z,7.57
2023-05-19T10:39:59.780Z,8.60
2023-05-19T10:42:35.746Z,4.80
2023-05-19T10:45:10.840Z,5.47
2023-05-19T10:47:38.604Z,3.30
2023-05-19T10:50:08.273Z,5.00
2023-05-19T10:52:40.323Z,5.60
2023-05-19T10:55:10.040Z,5.10
2023-05-19T10:57:37.809Z,8.67
2023-05-19T11:00:26.883Z,5.23
2023-05-19T11:02:56.380Z,4.53
2023-05-19T11:05:30.200Z,6.73
2023-05-19T11:08:02.470Z,5.47
2023-05-19T11:10:30.361Z,5.57
2023-05-19T11:12:58.601Z,8.03
2023-05-19T11:15:27.601Z,4.77
2023-05-19T11:17:55.634Z,5.30
2023-05-19T11:20:25.244Z,7.57
2023-05-19T11:23:06.689Z,7.53
2023-05-19T11:25:46.864Z,5.47
2023-05-19T11:28:17.435Z,4.83
2023-05-19T11:30:46.821Z,4.33
2023-05-19T11:33:14.862Z,7.03
2023-05-19T11:35:44.245Z,5.20
2023-05-19T11:38:14.788Z,4.70
2023-05-19T11:40:42.981Z,5.90
2023-05-19T11:43:10.932Z,8.30
2023-05-19T11:45:38.920Z,4.10
2023-05-19T11:48:07.044Z,5.53
2023-05-19T11:50:36.769Z,11.20
2023-05-19T11:53:04.474Z,10.10
2023-05-19T11:55:34.570Z,6.00
2023-05-19T11:58:05.430Z,8.33
2023-05-19T12:00:38.101Z,5.63
2023-05-19T12:03:06.277Z,4.13
2023-05-19T12:05:40.806Z,8.20
2023-05-19T12:08:09.873Z,4.10
2023-05-19T12:10:39.955Z,5.90
2023-05-19T12:13:09.304Z,5.43
2023-05-19T12:15:37.472Z,4.13
2023-05-19T12:18:05.598Z,6.67
2023-05-19T12:20:35.463Z,5.00
2023-05-19T12:23:04.163Z,6.17
2023-05-19T12:25:32.953Z,3.90
2023-05-19T12:28:04.469Z,5.30
2023-05-19T12:30:33.987Z,10.20
2023-05-19T12:33:03.098Z,3.43
2023-05-19T12:35:33.166Z,6.03
2023-05-19T12:38:04.055Z,8.13
2023-05-19T12:40:31.952Z,6.37
2023-05-19T12:43:00.139Z,4.97
2023-05-19T12:45:29.647Z,10.73
2023-05-19T12:47:57.670Z,5.17
2023-05-19T12:50:31.376Z,4.03
2023-05-19T12:52:59.821Z,4.40
2023-05-19T12:55:27.917Z,5.00
2023-05-19T12:57:57.822Z,7.90
2023-05-19T13:00:29.017Z,6.93
2023-05-19T13:03:00.653Z,4.43
2023-05-19T13:05:29.527Z,3.90
2023-05-19T13:07:58.833Z,9.17
2023-05-19T13:10:28.015Z,3.17
2023-05-19T13:12:56.537Z,4.23
2023-05-19T13:15:26.137Z,3.93
2023-05-19T13:17:54.778Z,7.90
2023-05-19T13:20:25.675Z,2.70
2023-05-19T13:22:55.330Z,4.80
2023-05-19T13:25:23.011Z,13.13
2023-05-19T13:27:50.967Z,4.37
2023-05-19T13:30:19.492Z,3.13
2023-05-19T13:32:47.510Z,2.53
2023-05-19T13:35:16.088Z,4.13
2023-05-19T13:37:45.560Z,5.50
2023-05-19T13:40:14.347Z,5.63
2023-05-19T13:42:42.161Z,5.60
2023-05-19T13:45:10.873Z,5.77
2023-05-19T13:47:38.586Z,2.63
2023-05-19T13:50:07.237Z,2.87
2023-05-19T13:52:34.988Z,4.90
2023-05-19T13:55:04.193Z,4.07
2023-05-19T13:57:31.839Z,3.83
2023-05-19T14:00:02.563Z,3.87
2023-05-19T14:02:40.594Z,3.67
2023-05-19T14:05:08.950Z,3.60
2023-05-19T14:07:37.015Z,3.90
2023-05-19T14:10:07.074Z,2.43
2023-05-19T14:12:55.229Z,4.13
2023-05-19T14:15:24.732Z,4.80
2023-05-19T14:17:53.179Z,4.90
2023-05-19T14:20:21.029Z,4.07
2023-05-19T14:22:48.664Z,3.73
2023-05-19T14:25:17.880Z,5.23
2023-05-19T14:27:45.508Z,3.60
2023-05-19T14:30:13.669Z,2.73
2023-05-19T14:32:41.452Z,4.13
2023-05-19T14:35:09.614Z,5.23
2023-05-19T14:37:37.283Z,4.90
2023-05-19T14:40:05.467Z,7.33
2023-05-19T14:42:34.421Z,4.00
2023-05-19T14:45:02.109Z,5.33
2023-05-19T14:47:29.772Z,3.40
2023-05-19T14:49:57.539Z,12.67
2023-05-19T14:52:26.169Z,4.47
2023-05-19T14:54:54.094Z,4.77
2023-05-19T14:57:21.846Z,2.03
2023-05-19T14:59:51.113Z,2.23
2023-05-19T15:02:18.903Z,2.80
2023-05-19T15:04:46.598Z,2.60
2023-05-19T15:07:14.255Z,3.20
2023-05-19T15:09:41.855Z,3.13
2023-05-19T15:12:09.466Z,4.77
2023-05-19T15:14:37.072Z,3.60
2023-05-19T15:17:06.496Z,5.20
2023-05-19T15:19:34.224Z,4.20
2023-05-19T15:22:01.878Z,3.40
2023-05-19T15:24:29.494Z,2.37
2023-05-19T15:26:57.278Z,4.20
2023-05-19T15:29:24.911Z,5.87
2023-05-19T15:31:52.998Z,2.67
2023-05-19T15:34:22.202Z,5.60
2023-05-19T15:36:49.799Z,2.67
2023-05-19T15:39:17.529Z,5.73
2023-05-19T15:41:45.274Z,3.23
2023-05-19T15:44:13.012Z,2.87
2023-05-19T15:46:40.765Z,3.70
2023-05-19T15:49:08.466Z,9.13
2023-05-19T15:51:37.465Z,3.53
2023-05-19T15:54:05.123Z,4.70
2023-05-19T15:56:32.769Z,5.23
2023-05-19T15:59:00.467Z,6.40
2023-05-19T16:01:28.163Z,6.23
2023-05-19T16:03:55.969Z,4.80
2023-05-19T16:06:25.060Z,2.60
2023-05-19T16:08:54.102Z,2.50
2023-05-19T16:11:21.962Z,4.17
2023-05-19T16:13:49.728Z,3.73
2023-05-19T16:16:17.523Z,3.23
2023-05-19T16:18:46.436Z,5.93
2023-05-19T16:21:14.148Z,7.50
2023-05-19T16:23:41.778Z,4.43
2023-05-19T16:26:10.827Z,3.47
2023-05-19T16:28:38.555Z,3.03
2023-05-19T16:31:06.258Z,4.13
2023-05-19T16:33:33.901Z,2.80
2023-05-19T16:36:01.579Z,3.40
2023-05-19T16:38:29.216Z,4.00
2023-05-19T16:40:56.835Z,5.30
2023-05-19T16:43:26.217Z,4.20
2023-05-19T16:45:53.837Z,3.27
2023-05-19T16:48:21.607Z,3.97
2023-05-19T16:50:49.637Z,4.27
2023-05-19T16:53:17.402Z,3.30
2023-05-19T16:55:45.046Z,3.20
2023-05-19T16:58:12.744Z,4.83
2023-05-19T17:00:42.503Z,2.80
2023-05-19T17:03:10.255Z,4.50
2023-05-19T17:05:38.975Z,4.20
2023-05-19T17:08:06.749Z,4.17
2023-05-19T17:10:34.658Z,4.13
2023-05-19T17:13:02.510Z,3.83
2023-05-19T17:15:30.260Z,3.80
2023-05-19T17:17:59.362Z,3.53
2023-05-19T17:20:27.156Z,2.27
2023-05-19T17:22:54.788Z,2.70
2023-05-19T17:25:22.433Z,3.80
2023-05-19T17:27:50.083Z,3.90
2023-05-19T17:30:17.698Z,4.70
2023-05-19T17:32:45.504Z,3.43
2023-05-19T17:35:14.531Z,3.93
2023-05-19T17:37:42.309Z,6.30
2023-05-19T17:40:11.194Z,4.90
2023-05-19T17:42:38.861Z,3.47
2023-05-19T17:45:08.159Z,4.43
2023-05-19T17:47:35.890Z,2.00
2023-05-19T17:50:03.587Z,6.30
2023-05-19T17:52:33.474Z,3.80
2023-05-19T17:55:01.628Z,3.33
2023-05-19T17:57:31.974Z,5.20
2023-05-19T18:00:00.329Z,4.60
2023-05-19T18:02:28.641Z,4.47
2023-05-19T18:04:56.853Z,4.70
2023-05-19T18:07:26.051Z,2.83
2023-05-19T18:09:56.943Z,3.40
2023-05-19T18:12:24.748Z,3.20
2023-05-19T18:14:52.419Z,4.60
2023-05-19T18:17:20.228Z,4.13
2023-05-19T18:19:49.328Z,4.30
2023-05-19T18:22:17.622Z,4.97
2023-05-19T18:24:45.313Z,2.37
2023-05-19T18:27:14.287Z,4.40
2023-05-19T18:29:43.242Z,6.37
2023-05-19T18:32:14.241Z,6.70
2023-05-19T18:34:42.091Z,2.77
2023-05-19T18:37:09.719Z,2.90
2023-05-19T18:39:38.131Z,3.10
2023-05-19T18:42:06.183Z,2.53
2023-05-19T18:44:35.317Z,2.33
2023-05-19T18:47:02.937Z,3.00
2023-05-19T18:49:30.789Z,5.43
2023-05-19T18:51:58.550Z,2.50
2023-05-19T18:54:26.306Z,2.50
2023-05-19T18:56:53.973Z,2.63
2023-05-19T18:59:21.689Z,1.87
2023-05-19T19:01:50.746Z,5.30
2023-05-19T19:04:18.469Z,2.40
2023-05-19T19:06:46.673Z,2.70
2023-05-19T19:09:14.422Z,6.80
2023-05-19T19:11:42.183Z,2.63
2023-05-19T19:14:10.214Z,2.73
2023-05-19T19:16:38.314Z,3.30
2023-05-19T19:19:07.558Z,2.07
2023-05-19T19:21:35.358Z,2.77
2023-05-19T19:24:03.291Z,4.20
2023-05-19T19:26:30.923Z,3.30
2023-05-19T19:28:58.961Z,3.17
2023-05-19T19:31:28.542Z,6.77
2023-05-19T19:33:58.854Z,3.07
2023-05-19T19:36:28.029Z,2.90
2023-05-19T19:38:55.732Z,2.93
2023-05-19T19:41:23.373Z,3.30
2023-05-19T19:43:51.042Z,2.53
2023-05-19T19:46:18.727Z,3.30
2023-05-19T19:48:46.816Z,4.23
2023-05-19T19:51:14.460Z,4.27
2023-05-19T19:53:43.459Z,3.70
2023-05-19T19:56:11.407Z,3.60
2023-05-19T19:58:39.183Z,7.03
2023-05-19T20:01:08.092Z,2.73
2023-05-19T20:03:36.484Z,2.63
2023-05-19T20:06:04.329Z,1.70
2023-05-19T20:08:32.094Z,3.07
2023-05-19T20:11:01.178Z,5.43
2023-05-19T20:13:30.633Z,2.80
2023-05-19T20:15:59.135Z,3.97
2023-05-19T20:18:27.806Z,4.37
2023-05-19T20:20:55.431Z,2.80
2023-05-19T20:23:23.199Z,2.50
2023-05-19T20:26:10.049Z,2.90
2023-05-19T20:28:39.969Z,4.37
2023-05-19T20:31:07.894Z,3.17
2023-05-19T20:33:35.910Z,3.43
2023-05-19T20:36:03.662Z,3.13
2023-05-19T20:38:31.316Z,2.50
2023-05-19T20:40:58.885Z,3.83
2023-05-19T20:43:26.559Z,2.30
2023-05-19T20:45:56.134Z,2.90
2023-05-19T20:48:23.800Z,3.43
2023-05-19T20:50:51.745Z,4.03
2023-05-19T20:53:19.836Z,2.80
2023-05-19T20:55:47.716Z,5.00
2023-05-19T20:58:15.400Z,3.47
2023-05-19T21:00:43.050Z,4.70
2023-05-19T21:03:12.482Z,8.63
2023-05-19T21:05:40.983Z,2.50
2023-05-19T21:08:12.870Z,4.50
2023-05-19T21:10:40.896Z,5.53
2023-05-19T21:13:08.801Z,4.90
2023-05-19T21:15:36.421Z,2.37
2023-05-19T21:18:04.105Z,2.90
2023-05-19T21:20:33.615Z,5.80
2023-05-19T21:23:01.422Z,5.07
2023-05-19T21:25:29.034Z,3.47
2023-05-19T21:27:58.122Z,3.00
2023-05-19T21:30:26.062Z,8.90
2023-05-19T21:32:53.799Z,2.70
2023-05-19T21:35:21.485Z,3.40
2023-05-19T21:37:50.841Z,5.57
2023-05-19T21:40:18.456Z,3.30
2023-05-19T21:42:46.095Z,3.93
2023-05-19T21:45:13.691Z,4.70
2023-05-19T21:47:41.331Z,4.60
2023-05-19T21:50:10.907Z,4.47
2023-05-19T21:52:38.569Z,3.60
2023-05-19T21:55:09.817Z,2.97
2023-05-19T21:57:37.431Z,3.70
2023-05-19T22:00:07.792Z,4.00
2023-05-19T22:02:39.504Z,3.93
2023-05-19T22:05:07.826Z,4.13
2023-05-19T22:07:35.553Z,4.47
2023-05-19T22:10:03.242Z,3.70
2023-05-19T22:12:33.214Z,3.50
2023-05-19T22:15:01.357Z,5.17
2023-05-19T22:17:29.875Z,4.83
2023-05-19T22:19:57.818Z,4.67
2023-05-19T22:22:25.505Z,9.30
2023-05-19T22:24:53.151Z,3.57
2023-05-19T22:27:20.793Z,4.40
2023-05-19T22:29:49.772Z,3.97
2023-05-19T22:32:19.356Z,6.10
2023-05-19T22:34:47.166Z,4.87
2023-05-19T22:37:14.880Z,7.33
2023-05-19T22:39:42.499Z,5.87
2023-05-19T22:42:10.192Z,4.80
2023-05-19T22:44:37.854Z,4.63
2023-05-19T22:47:10.124Z,3.60
2023-05-19T22:49:37.765Z,3.30
2023-05-19T22:52:06.002Z,5.90
2023-05-19T22:54:33.646Z,4.33
2023-05-19T22:57:01.415Z,4.83
2023-05-19T22:59:29.063Z,4.80
2023-05-19T23:01:56.779Z,3.33
2023-05-19T23:04:25.785Z,2.80
2023-05-19T23:06:53.649Z,4.07
2023-05-19T23:09:21.800Z,4.03
2023-05-19T23:11:50.005Z,3.87
2023-05-19T23:14:18.453Z,4.30
2023-05-19T23:16:46.103Z,3.53
2023-05-19T23:19:13.814Z,5.23
2023-05-19T23:21:44.470Z,3.33
2023-05-19T23:24:12.071Z,3.93
2023-05-19T23:26:39.728Z,4.40
2023-05-19T23:29:07.387Z,4.53
2023-05-19T23:31:35.104Z,3.67
2023-05-19T23:34:03.108Z,3.53
2023-05-19T23:36:31.254Z,7.27
2023-05-19T23:39:00.779Z,4.53
2023-05-19T23:41:28.494Z,4.30
2023-05-19T23:43:56.187Z,4.93
2023-05-19T23:46:23.907Z,4.53
2023-05-19T23:48:51.581Z,6.47
2023-05-19T23:51:19.250Z,7.47
2023-05-19T23:53:46.866Z,5.60
2023-05-19T23:56:15.845Z,4.60
2023-05-19T23:58:43.470Z,4.17
